sim
Sign-in with your pilot id or email,
or register
Callsign
Passwort

Schedule Details

Flight Number: OEC0270
Departure: Rio de Janeiro Galeao International Airport (SBGL) at Time
Arrival: Los Angeles International Airport (KLAX) at Time
Route: ENSOD UM409 ALGOX UZ8 RORIT UM417 MOTVI UM549 TBG UM419 ASOKU UL655 PPE J93 ASUTA J93 AMMOR

Weather Information
Getting current METAR information for SBGL 191300Z 03004KT 6000 FEW015 23/20 Q1018
Getting current METAR information for KLAX 191253Z 09006KT 10SM -RA FEW008 SCT018 BKN055 11/09 A2987 RMK AO2 RAB16 SLP113 P0012 T01110094

Schedule Frequency

Route Map